sensor_id;sensor_type;location;lat;lon;timestamp;P1;durP1;ratioP1;P2;durP2;ratioP2
53714;SDS011;39608;55.630;37.864;2022-09-13T00:01:34;6.15;;;4.90;;
53714;SDS011;39608;55.630;37.864;2022-09-13T00:06:36;5.80;;;5.18;;
53714;SDS011;39608;55.630;37.864;2022-09-13T00:11:38;5.50;;;4.85;;
53714;SDS011;39608;55.630;37.864;2022-09-13T00:16:42;7.00;;;5.32;;
53714;SDS011;39608;55.630;37.864;2022-09-13T00:21:44;10.02;;;5.38;;
53714;SDS011;39608;55.630;37.864;2022-09-13T00:26:46;9.80;;;5.07;;
53714;SDS011;39608;55.630;37.864;2022-09-13T00:31:49;6.88;;;4.93;;
53714;SDS011;39608;55.630;37.864;2022-09-13T00:36:51;6.07;;;5.13;;
53714;SDS011;39608;55.630;37.864;2022-09-13T00:41:53;8.95;;;5.65;;
53714;SDS011;39608;55.630;37.864;2022-09-13T00:46:57;9.10;;;5.78;;
53714;SDS011;39608;55.630;37.864;2022-09-13T00:52:00;6.35;;;4.88;;
53714;SDS011;39608;55.630;37.864;2022-09-13T00:57:05;7.17;;;4.97;;
53714;SDS011;39608;55.630;37.864;2022-09-13T01:02:12;6.45;;;4.82;;
53714;SDS011;39608;55.630;37.864;2022-09-13T01:07:16;8.57;;;4.00;;
53714;SDS011;39608;55.630;37.864;2022-09-13T01:12:24;8.38;;;4.10;;
53714;SDS011;39608;55.630;37.864;2022-09-13T01:17:37;7.72;;;3.85;;
53714;SDS011;39608;55.630;37.864;2022-09-13T01:22:51;4.88;;;4.38;;
53714;SDS011;39608;55.630;37.864;2022-09-13T01:28:29;5.07;;;4.35;;
53714;SDS011;39608;55.630;37.864;2022-09-13T01:34:03;4.72;;;4.32;;
53714;SDS011;39608;55.630;37.864;2022-09-13T01:39:16;6.38;;;4.40;;
53714;SDS011;39608;55.630;37.864;2022-09-13T01:44:27;6.38;;;4.68;;
53714;SDS011;39608;55.630;37.864;2022-09-13T01:49:46;7.15;;;5.22;;
53714;SDS011;39608;55.630;37.864;2022-09-13T01:54:59;7.38;;;5.18;;
53714;SDS011;39608;55.630;37.864;2022-09-13T02:00:09;8.95;;;5.95;;
53714;SDS011;39608;55.630;37.864;2022-09-13T02:05:17;7.30;;;5.32;;
53714;SDS011;39608;55.630;37.864;2022-09-13T02:10:24;13.18;;;6.22;;
53714;SDS011;39608;55.630;37.864;2022-09-13T02:15:31;8.93;;;5.82;;
53714;SDS011;39608;55.630;37.864;2022-09-13T02:20:40;5.45;;;4.85;;
53714;SDS011;39608;55.630;37.864;2022-09-13T02:25:45;6.82;;;5.20;;
53714;SDS011;39608;55.630;37.864;2022-09-13T02:30:50;7.53;;;5.80;;
53714;SDS011;39608;55.630;37.864;2022-09-13T02:35:57;9.10;;;5.60;;
53714;SDS011;39608;55.630;37.864;2022-09-13T02:41:04;8.68;;;5.65;;
53714;SDS011;39608;55.630;37.864;2022-09-13T02:46:19;8.05;;;5.85;;
53714;SDS011;39608;55.630;37.864;2022-09-13T02:51:30;9.13;;;6.20;;
53714;SDS011;39608;55.630;37.864;2022-09-13T02:56:40;6.43;;;5.47;;
53714;SDS011;39608;55.630;37.864;2022-09-13T03:01:49;8.82;;;5.78;;
53714;SDS011;39608;55.630;37.864;2022-09-13T03:06:58;10.73;;;5.57;;
53714;SDS011;39608;55.630;37.864;2022-09-13T03:12:06;10.40;;;6.53;;
53714;SDS011;39608;55.630;37.864;2022-09-13T03:17:32;6.93;;;5.55;;
53714;SDS011;39608;55.630;37.864;2022-09-13T03:22:57;7.22;;;5.32;;
53714;SDS011;39608;55.630;37.864;2022-09-13T03:28:13;5.50;;;4.78;;
53714;SDS011;39608;55.630;37.864;2022-09-13T03:33:26;5.38;;;4.50;;
53714;SDS011;39608;55.630;37.864;2022-09-13T03:38:34;9.60;;;4.47;;
53714;SDS011;39608;55.630;37.864;2022-09-13T03:43:40;5.47;;;4.18;;
53714;SDS011;39608;55.630;37.864;2022-09-13T03:48:48;6.55;;;4.40;;
53714;SDS011;39608;55.630;37.864;2022-09-13T03:53:54;4.72;;;4.00;;
53714;SDS011;39608;55.630;37.864;2022-09-13T03:59:00;5.57;;;4.30;;
53714;SDS011;39608;55.630;37.864;2022-09-13T04:04:02;8.85;;;4.05;;
53714;SDS011;39608;55.630;37.864;2022-09-13T04:09:06;4.70;;;3.70;;
53714;SDS011;39608;55.630;37.864;2022-09-13T04:14:08;8.43;;;4.05;;
53714;SDS011;39608;55.630;37.864;2022-09-13T04:19:10;7.40;;;4.28;;
53714;SDS011;39608;55.630;37.864;2022-09-13T04:24:14;5.75;;;3.95;;
53714;SDS011;39608;55.630;37.864;2022-09-13T04:29:16;5.10;;;4.32;;
53714;SDS011;39608;55.630;37.864;2022-09-13T04:34:18;6.15;;;4.13;;
53714;SDS011;39608;55.630;37.864;2022-09-13T04:39:22;7.15;;;4.57;;
53714;SDS011;39608;55.630;37.864;2022-09-13T04:44:25;7.20;;;4.30;;
53714;SDS011;39608;55.630;37.864;2022-09-13T04:49:27;5.05;;;4.18;;
53714;SDS011;39608;55.630;37.864;2022-09-13T04:54:30;8.32;;;4.55;;
53714;SDS011;39608;55.630;37.864;2022-09-13T04:59:33;7.10;;;4.32;;
53714;SDS011;39608;55.630;37.864;2022-09-13T05:04:35;6.82;;;4.72;;
53714;SDS011;39608;55.630;37.864;2022-09-13T05:09:39;8.70;;;3.92;;
53714;SDS011;39608;55.630;37.864;2022-09-13T05:14:41;6.05;;;4.50;;
53714;SDS011;39608;55.630;37.864;2022-09-13T05:19:43;5.97;;;4.50;;
53714;SDS011;39608;55.630;37.864;2022-09-13T05:24:46;7.78;;;4.70;;
53714;SDS011;39608;55.630;37.864;2022-09-13T05:29:48;9.70;;;4.38;;
53714;SDS011;39608;55.630;37.864;2022-09-13T05:34:50;10.73;;;4.80;;
53714;SDS011;39608;55.630;37.864;2022-09-13T05:39:54;7.15;;;4.35;;
53714;SDS011;39608;55.630;37.864;2022-09-13T05:44:56;7.88;;;4.82;;
53714;SDS011;39608;55.630;37.864;2022-09-13T05:49:58;8.82;;;4.82;;
53714;SDS011;39608;55.630;37.864;2022-09-13T05:55:02;7.93;;;4.80;;
53714;SDS011;39608;55.630;37.864;2022-09-13T06:00:05;7.65;;;4.55;;
53714;SDS011;39608;55.630;37.864;2022-09-13T06:05:08;6.50;;;4.85;;
53714;SDS011;39608;55.630;37.864;2022-09-13T06:10:12;6.18;;;4.82;;
53714;SDS011;39608;55.630;37.864;2022-09-13T06:15:14;5.53;;;4.35;;
53714;SDS011;39608;55.630;37.864;2022-09-13T06:20:16;8.85;;;4.82;;
53714;SDS011;39608;55.630;37.864;2022-09-13T06:25:20;6.15;;;4.13;;
53714;SDS011;39608;55.630;37.864;2022-09-13T06:30:22;9.27;;;4.97;;
53714;SDS011;39608;55.630;37.864;2022-09-13T06:35:24;5.70;;;4.50;;
53714;SDS011;39608;55.630;37.864;2022-09-13T06:40:28;7.88;;;4.82;;
53714;SDS011;39608;55.630;37.864;2022-09-13T06:45:30;6.53;;;5.10;;
53714;SDS011;39608;55.630;37.864;2022-09-13T06:50:32;9.48;;;4.60;;
53714;SDS011;39608;55.630;37.864;2022-09-13T06:55:35;9.65;;;4.65;;
53714;SDS011;39608;55.630;37.864;2022-09-13T07:00:37;7.43;;;4.43;;
53714;SDS011;39608;55.630;37.864;2022-09-13T07:05:41;6.93;;;4.47;;
53714;SDS011;39608;55.630;37.864;2022-09-13T07:10:45;7.93;;;4.43;;
53714;SDS011;39608;55.630;37.864;2022-09-13T07:15:47;8.68;;;5.20;;
53714;SDS011;39608;55.630;37.864;2022-09-13T07:20:49;6.90;;;4.28;;
53714;SDS011;39608;55.630;37.864;2022-09-13T07:25:59;6.20;;;4.30;;
53714;SDS011;39608;55.630;37.864;2022-09-13T07:31:04;12.05;;;4.15;;
53714;SDS011;39608;55.630;37.864;2022-09-13T07:36:13;9.00;;;4.65;;
53714;SDS011;39608;55.630;37.864;2022-09-13T07:41:17;16.27;;;4.03;;
53714;SDS011;39608;55.630;37.864;2022-09-13T07:46:22;6.18;;;4.18;;
53714;SDS011;39608;55.630;37.864;2022-09-13T07:51:28;10.95;;;3.92;;
53714;SDS011;39608;55.630;37.864;2022-09-13T07:56:33;13.23;;;4.05;;
53714;SDS011;39608;55.630;37.864;2022-09-13T08:01:37;6.65;;;3.55;;
53714;SDS011;39608;55.630;37.864;2022-09-13T08:06:40;5.30;;;3.58;;
53714;SDS011;39608;55.630;37.864;2022-09-13T08:11:46;4.63;;;3.40;;
53714;SDS011;39608;55.630;37.864;2022-09-13T08:16:49;8.57;;;3.00;;
53714;SDS011;39608;55.630;37.864;2022-09-13T08:21:51;8.15;;;2.83;;
53714;SDS011;39608;55.630;37.864;2022-09-13T08:26:56;5.30;;;3.45;;
53714;SDS011;39608;55.630;37.864;2022-09-13T08:31:58;4.45;;;2.42;;
53714;SDS011;39608;55.630;37.864;2022-09-13T08:37:00;4.75;;;2.00;;
53714;SDS011;39608;55.630;37.864;2022-09-13T08:42:07;6.65;;;2.00;;
53714;SDS011;39608;55.630;37.864;2022-09-13T08:47:29;3.05;;;1.70;;
53714;SDS011;39608;55.630;37.864;2022-09-13T08:52:38;3.85;;;1.80;;
53714;SDS011;39608;55.630;37.864;2022-09-13T08:57:50;2.47;;;1.63;;
53714;SDS011;39608;55.630;37.864;2022-09-13T09:03:01;4.05;;;1.83;;
53714;SDS011;39608;55.630;37.864;2022-09-13T09:08:22;2.72;;;1.80;;
53714;SDS011;39608;55.630;37.864;2022-09-13T09:13:33;5.30;;;1.48;;
53714;SDS011;39608;55.630;37.864;2022-09-13T09:24:03;1.60;;;1.50;;
53714;SDS011;39608;55.630;37.864;2022-09-13T09:29:11;3.67;;;1.67;;
53714;SDS011;39608;55.630;37.864;2022-09-13T09:34:19;4.18;;;1.52;;
53714;SDS011;39608;55.630;37.864;2022-09-13T09:39:26;5.97;;;1.10;;
53714;SDS011;39608;55.630;37.864;2022-09-13T09:44:34;1.23;;;1.00;;
53714;SDS011;39608;55.630;37.864;2022-09-13T09:49:38;1.10;;;1.00;;
53714;SDS011;39608;55.630;37.864;2022-09-13T09:55:09;1.65;;;1.10;;
53714;SDS011;39608;55.630;37.864;2022-09-13T10:00:20;4.93;;;1.15;;
53714;SDS011;39608;55.630;37.864;2022-09-13T10:05:23;1.90;;;1.00;;
53714;SDS011;39608;55.630;37.864;2022-09-13T10:10:29;6.65;;;1.10;;
53714;SDS011;39608;55.630;37.864;2022-09-13T10:15:38;3.13;;;1.42;;
53714;SDS011;39608;55.630;37.864;2022-09-13T10:21:01;1.20;;;1.10;;
53714;SDS011;39608;55.630;37.864;2022-09-13T10:26:06;1.33;;;1.10;;
53714;SDS011;39608;55.630;37.864;2022-09-13T10:31:12;4.22;;;1.20;;
53714;SDS011;39608;55.630;37.864;2022-09-13T10:36:17;1.05;;;0.90;;
53714;SDS011;39608;55.630;37.864;2022-09-13T10:41:23;1.20;;;1.10;;
53714;SDS011;39608;55.630;37.864;2022-09-13T10:46:30;4.07;;;1.25;;
53714;SDS011;39608;55.630;37.864;2022-09-13T10:51:34;1.70;;;1.00;;
53714;SDS011;39608;55.630;37.864;2022-09-13T10:56:38;0.80;;;0.77;;
53714;SDS011;39608;55.630;37.864;2022-09-13T11:01:43;4.43;;;1.13;;
53714;SDS011;39608;55.630;37.864;2022-09-13T11:06:55;1.52;;;1.00;;
53714;SDS011;39608;55.630;37.864;2022-09-13T11:12:11;8.23;;;1.10;;
53714;SDS011;39608;55.630;37.864;2022-09-13T11:17:23;1.10;;;1.00;;
53714;SDS011;39608;55.630;37.864;2022-09-13T11:22:41;1.08;;;1.00;;
53714;SDS011;39608;55.630;37.864;2022-09-13T11:28:01;1.35;;;1.02;;
53714;SDS011;39608;55.630;37.864;2022-09-13T11:33:26;1.48;;;0.90;;
53714;SDS011;39608;55.630;37.864;2022-09-13T11:38:45;3.05;;;1.15;;
53714;SDS011;39608;55.630;37.864;2022-09-13T11:49:22;4.38;;;0.95;;
53714;SDS011;39608;55.630;37.864;2022-09-13T11:54:38;1.10;;;1.00;;
53714;SDS011;39608;55.630;37.864;2022-09-13T11:59:50;2.35;;;1.40;;
53714;SDS011;39608;55.630;37.864;2022-09-13T12:04:59;1.02;;;0.93;;
53714;SDS011;39608;55.630;37.864;2022-09-13T12:10:11;3.92;;;1.33;;
53714;SDS011;39608;55.630;37.864;2022-09-13T12:15:18;2.60;;;1.17;;
53714;SDS011;39608;55.630;37.864;2022-09-13T12:20:30;2.05;;;1.15;;
53714;SDS011;39608;55.630;37.864;2022-09-13T12:25:37;4.22;;;1.45;;
53714;SDS011;39608;55.630;37.864;2022-09-13T12:30:46;1.77;;;1.08;;
53714;SDS011;39608;55.630;37.864;2022-09-13T12:35:59;1.40;;;0.90;;
53714;SDS011;39608;55.630;37.864;2022-09-13T12:41:26;3.17;;;1.13;;
53714;SDS011;39608;55.630;37.864;2022-09-13T12:52:27;3.03;;;0.90;;
53714;SDS011;39608;55.630;37.864;2022-09-13T12:57:37;5.00;;;1.08;;
53714;SDS011;39608;55.630;37.864;2022-09-13T13:02:49;3.28;;;1.10;;
53714;SDS011;39608;55.630;37.864;2022-09-13T13:07:59;2.83;;;1.05;;
53714;SDS011;39608;55.630;37.864;2022-09-13T13:13:10;2.58;;;1.20;;
53714;SDS011;39608;55.630;37.864;2022-09-13T13:18:21;1.20;;;1.10;;
53714;SDS011;39608;55.630;37.864;2022-09-13T13:23:27;2.60;;;0.85;;
53714;SDS011;39608;55.630;37.864;2022-09-13T13:28:49;3.63;;;0.90;;
53714;SDS011;39608;55.630;37.864;2022-09-13T13:39:49;2.50;;;1.08;;
53714;SDS011;39608;55.630;37.864;2022-09-13T13:45:18;4.65;;;1.20;;
53714;SDS011;39608;55.630;37.864;2022-09-13T13:50:25;2.85;;;1.50;;
53714;SDS011;39608;55.630;37.864;2022-09-13T13:55:39;3.22;;;1.25;;
53714;SDS011;39608;55.630;37.864;2022-09-13T14:00:47;4.93;;;1.33;;
53714;SDS011;39608;55.630;37.864;2022-09-13T14:05:53;3.22;;;1.30;;
53714;SDS011;39608;55.630;37.864;2022-09-13T14:11:04;2.25;;;1.27;;
53714;SDS011;39608;55.630;37.864;2022-09-13T14:16:17;2.85;;;1.60;;
53714;SDS011;39608;55.630;37.864;2022-09-13T14:21:31;3.70;;;1.60;;
53714;SDS011;39608;55.630;37.864;2022-09-13T14:26:35;1.92;;;1.40;;
53714;SDS011;39608;55.630;37.864;2022-09-13T14:31:37;4.68;;;2.10;;
53714;SDS011;39608;55.630;37.864;2022-09-13T14:36:40;2.97;;;1.55;;
53714;SDS011;39608;55.630;37.864;2022-09-13T14:42:01;4.03;;;1.40;;
53714;SDS011;39608;55.630;37.864;2022-09-13T14:47:14;8.52;;;1.65;;
53714;SDS011;39608;55.630;37.864;2022-09-13T14:52:22;6.97;;;2.20;;
53714;SDS011;39608;55.630;37.864;2022-09-13T15:02:35;16.20;;;2.28;;
53714;SDS011;39608;55.630;37.864;2022-09-13T15:07:38;4.70;;;2.28;;
53714;SDS011;39608;55.630;37.864;2022-09-13T15:12:49;6.03;;;2.13;;
53714;SDS011;39608;55.630;37.864;2022-09-13T15:17:53;7.18;;;1.80;;
53714;SDS011;39608;55.630;37.864;2022-09-13T15:22:58;9.25;;;1.95;;
53714;SDS011;39608;55.630;37.864;2022-09-13T15:28:01;6.28;;;1.77;;
53714;SDS011;39608;55.630;37.864;2022-09-13T15:33:14;9.38;;;2.10;;
53714;SDS011;39608;55.630;37.864;2022-09-13T15:38:22;2.87;;;2.40;;
53714;SDS011;39608;55.630;37.864;2022-09-13T15:43:27;8.43;;;2.00;;
53714;SDS011;39608;55.630;37.864;2022-09-13T15:48:31;3.03;;;2.08;;
53714;SDS011;39608;55.630;37.864;2022-09-13T15:53:34;6.05;;;2.22;;
53714;SDS011;39608;55.630;37.864;2022-09-13T15:58:39;3.03;;;2.10;;
53714;SDS011;39608;55.630;37.864;2022-09-13T16:03:41;2.67;;;1.80;;
53714;SDS011;39608;55.630;37.864;2022-09-13T16:08:43;5.22;;;2.00;;
53714;SDS011;39608;55.630;37.864;2022-09-13T16:13:47;5.78;;;2.22;;
53714;SDS011;39608;55.630;37.864;2022-09-13T16:18:49;3.95;;;2.00;;
53714;SDS011;39608;55.630;37.864;2022-09-13T16:23:51;4.70;;;2.10;;
53714;SDS011;39608;55.630;37.864;2022-09-13T16:28:55;3.88;;;2.20;;
53714;SDS011;39608;55.630;37.864;2022-09-13T16:33:57;6.63;;;2.58;;
53714;SDS011;39608;55.630;37.864;2022-09-13T16:39:00;5.18;;;2.10;;
53714;SDS011;39608;55.630;37.864;2022-09-13T16:44:03;2.55;;;1.63;;
53714;SDS011;39608;55.630;37.864;2022-09-13T16:49:05;3.72;;;2.22;;
53714;SDS011;39608;55.630;37.864;2022-09-13T16:54:07;3.55;;;2.10;;
53714;SDS011;39608;55.630;37.864;2022-09-13T16:59:11;2.60;;;1.90;;
53714;SDS011;39608;55.630;37.864;2022-09-13T17:04:13;4.00;;;2.10;;
53714;SDS011;39608;55.630;37.864;2022-09-13T17:09:15;2.70;;;1.92;;
53714;SDS011;39608;55.630;37.864;2022-09-13T17:14:23;2.20;;;1.85;;
53714;SDS011;39608;55.630;37.864;2022-09-13T17:19:26;3.22;;;1.85;;
53714;SDS011;39608;55.630;37.864;2022-09-13T17:24:30;4.38;;;1.63;;
53714;SDS011;39608;55.630;37.864;2022-09-13T17:29:35;7.13;;;2.35;;
53714;SDS011;39608;55.630;37.864;2022-09-13T17:34:38;3.08;;;2.08;;
53714;SDS011;39608;55.630;37.864;2022-09-13T17:39:40;8.45;;;2.38;;
53714;SDS011;39608;55.630;37.864;2022-09-13T17:44:44;3.08;;;1.73;;
53714;SDS011;39608;55.630;37.864;2022-09-13T17:49:48;2.88;;;1.83;;
53714;SDS011;39608;55.630;37.864;2022-09-13T17:54:51;3.53;;;1.75;;
53714;SDS011;39608;55.630;37.864;2022-09-13T17:59:54;2.97;;;1.75;;
53714;SDS011;39608;55.630;37.864;2022-09-13T18:04:57;6.22;;;2.72;;
53714;SDS011;39608;55.630;37.864;2022-09-13T18:09:59;2.30;;;1.70;;
53714;SDS011;39608;55.630;37.864;2022-09-13T18:15:07;2.33;;;2.13;;
53714;SDS011;39608;55.630;37.864;2022-09-13T18:20:11;3.03;;;2.50;;
53714;SDS011;39608;55.630;37.864;2022-09-13T18:25:14;2.00;;;1.88;;
53714;SDS011;39608;55.630;37.864;2022-09-13T18:30:24;5.05;;;2.35;;
53714;SDS011;39608;55.630;37.864;2022-09-13T18:35:27;2.65;;;2.28;;
53714;SDS011;39608;55.630;37.864;2022-09-13T18:40:29;4.20;;;2.40;;
53714;SDS011;39608;55.630;37.864;2022-09-13T18:45:34;3.67;;;2.17;;
53714;SDS011;39608;55.630;37.864;2022-09-13T18:50:40;4.55;;;2.03;;
53714;SDS011;39608;55.630;37.864;2022-09-13T18:55:42;2.72;;;2.13;;
53714;SDS011;39608;55.630;37.864;2022-09-13T19:00:46;2.38;;;2.00;;
53714;SDS011;39608;55.630;37.864;2022-09-13T19:05:48;2.47;;;2.22;;
53714;SDS011;39608;55.630;37.864;2022-09-13T19:10:51;4.03;;;2.42;;
53714;SDS011;39608;55.630;37.864;2022-09-13T19:15:57;2.95;;;2.28;;
53714;SDS011;39608;55.630;37.864;2022-09-13T19:21:00;3.47;;;2.70;;
53714;SDS011;39608;55.630;37.864;2022-09-13T19:26:04;3.65;;;2.70;;
53714;SDS011;39608;55.630;37.864;2022-09-13T19:31:11;4.13;;;3.00;;
53714;SDS011;39608;55.630;37.864;2022-09-13T19:36:14;5.10;;;2.90;;
53714;SDS011;39608;55.630;37.864;2022-09-13T19:41:18;5.55;;;3.78;;
53714;SDS011;39608;55.630;37.864;2022-09-13T19:46:24;10.32;;;3.55;;
53714;SDS011;39608;55.630;37.864;2022-09-13T19:51:29;6.20;;;3.17;;
53714;SDS011;39608;55.630;37.864;2022-09-13T19:56:33;5.25;;;3.28;;
53714;SDS011;39608;55.630;37.864;2022-09-13T20:01:40;4.35;;;2.72;;
53714;SDS011;39608;55.630;37.864;2022-09-13T20:06:44;4.45;;;2.72;;
53714;SDS011;39608;55.630;37.864;2022-09-13T20:11:47;3.22;;;2.88;;
53714;SDS011;39608;55.630;37.864;2022-09-13T20:16:51;4.28;;;2.63;;
53714;SDS011;39608;55.630;37.864;2022-09-13T20:21:53;2.67;;;2.47;;
53714;SDS011;39608;55.630;37.864;2022-09-13T20:26:57;3.85;;;2.40;;
53714;SDS011;39608;55.630;37.864;2022-09-13T20:32:01;2.85;;;2.58;;
53714;SDS011;39608;55.630;37.864;2022-09-13T20:37:03;3.63;;;2.30;;
53714;SDS011;39608;55.630;37.864;2022-09-13T20:42:06;4.03;;;2.70;;
53714;SDS011;39608;55.630;37.864;2022-09-13T20:47:09;3.67;;;2.33;;
53714;SDS011;39608;55.630;37.864;2022-09-13T20:52:12;3.95;;;2.40;;
53714;SDS011;39608;55.630;37.864;2022-09-13T20:57:16;5.70;;;2.42;;
53714;SDS011;39608;55.630;37.864;2022-09-13T21:02:20;2.47;;;2.28;;
53714;SDS011;39608;55.630;37.864;2022-09-13T21:07:22;2.25;;;1.98;;
53714;SDS011;39608;55.630;37.864;2022-09-13T21:12:41;2.30;;;1.83;;
53714;SDS011;39608;55.630;37.864;2022-09-13T21:17:45;3.60;;;2.17;;
53714;SDS011;39608;55.630;37.864;2022-09-13T21:22:47;3.13;;;1.98;;
53714;SDS011;39608;55.630;37.864;2022-09-13T21:27:49;2.90;;;2.08;;
53714;SDS011;39608;55.630;37.864;2022-09-13T21:32:53;1.90;;;1.80;;
53714;SDS011;39608;55.630;37.864;2022-09-13T21:37:55;2.92;;;2.10;;
53714;SDS011;39608;55.630;37.864;2022-09-13T21:42:57;5.30;;;2.55;;
53714;SDS011;39608;55.630;37.864;2022-09-13T21:48:01;5.30;;;2.75;;
53714;SDS011;39608;55.630;37.864;2022-09-13T21:53:03;5.72;;;2.10;;
53714;SDS011;39608;55.630;37.864;2022-09-13T21:58:07;5.40;;;2.35;;
53714;SDS011;39608;55.630;37.864;2022-09-13T22:03:12;5.28;;;2.17;;
53714;SDS011;39608;55.630;37.864;2022-09-13T22:08:14;2.97;;;2.25;;
53714;SDS011;39608;55.630;37.864;2022-09-13T22:13:16;6.68;;;2.20;;
53714;SDS011;39608;55.630;37.864;2022-09-13T22:18:20;2.50;;;2.10;;
53714;SDS011;39608;55.630;37.864;2022-09-13T22:23:22;4.10;;;2.15;;
53714;SDS011;39608;55.630;37.864;2022-09-13T22:28:25;3.17;;;2.10;;
53714;SDS011;39608;55.630;37.864;2022-09-13T22:33:28;3.15;;;2.17;;
53714;SDS011;39608;55.630;37.864;2022-09-13T22:38:31;4.40;;;2.17;;
53714;SDS011;39608;55.630;37.864;2022-09-13T22:43:33;2.58;;;1.95;;
53714;SDS011;39608;55.630;37.864;2022-09-13T22:48:37;2.35;;;2.15;;
53714;SDS011;39608;55.630;37.864;2022-09-13T22:53:40;3.00;;;1.90;;
53714;SDS011;39608;55.630;37.864;2022-09-13T22:58:43;4.68;;;1.90;;
53714;SDS011;39608;55.630;37.864;2022-09-13T23:03:47;1.80;;;1.70;;
53714;SDS011;39608;55.630;37.864;2022-09-13T23:08:57;2.03;;;1.83;;
53714;SDS011;39608;55.630;37.864;2022-09-13T23:14:01;2.08;;;1.98;;
53714;SDS011;39608;55.630;37.864;2022-09-13T23:19:08;1.77;;;1.42;;
53714;SDS011;39608;55.630;37.864;2022-09-13T23:24:11;1.52;;;1.45;;
53714;SDS011;39608;55.630;37.864;2022-09-13T23:29:15;1.40;;;1.30;;
53714;SDS011;39608;55.630;37.864;2022-09-13T23:34:20;1.58;;;1.42;;
53714;SDS011;39608;55.630;37.864;2022-09-13T23:39:22;1.25;;;1.15;;
53714;SDS011;39608;55.630;37.864;2022-09-13T23:44:24;1.58;;;1.45;;
53714;SDS011;39608;55.630;37.864;2022-09-13T23:49:29;1.65;;;1.55;;
53714;SDS011;39608;55.630;37.864;2022-09-13T23:54:31;1.98;;;1.40;;
53714;SDS011;39608;55.630;37.864;2022-09-13T23:59:33;1.88;;;1.30;;
